Time;durP1;ratioP1;P1;durP2;ratioP2;P2;SDS_P1;SDS_P2;PMS_P1;PMS_P2;Temp;Humidity;BMP_temperature;BMP_pressure;BME280_temperature;BME280_humidity;BME280_pressure;Samples;Min_cycle;Max_cycle;Signal;HPM_P1;HPM_P2
2022/12/26 00:02:46;;;;;;;62.63;32.47;;;3.10;99.90;;;;;;10438867;28;20200;-78
2022/12/26 00:08:08;;;;;;;66.63;33.53;;;3.20;99.90;;;;;;10468448;28;20236;-78
2022/12/26 00:13:29;;;;;;;67.43;34.23;;;3.20;99.90;;;;;;10438205;28;20500;-78
2022/12/26 00:18:50;;;;;;;65.93;32.77;;;3.20;99.90;;;;;;10439241;28;20597;-78
2022/12/26 00:24:12;;;;;;;64.53;33.30;;;3.20;99.90;;;;;;10437831;28;20196;-79
2022/12/26 00:29:33;;;;;;;63.30;33.23;;;3.20;99.90;;;;;;10438194;28;20184;-78
2022/12/26 00:34:54;;;;;;;72.40;34.83;;;3.30;99.90;;;;;;10438762;28;20212;-78
2022/12/26 00:40:16;;;;;;;62.47;33.77;;;3.30;99.90;;;;;;10437312;28;20216;-78
2022/12/26 00:45:37;;;;;;;76.30;35.30;;;3.30;99.90;;;;;;10437827;28;20199;-78
2022/12/26 00:50:58;;;;;;;72.70;34.67;;;3.40;99.90;;;;;;10438024;28;20192;-78
2022/12/26 00:56:19;;;;;;;73.17;34.40;;;3.40;99.90;;;;;;10450890;28;20234;-78
2022/12/26 01:01:41;;;;;;;73.00;34.13;;;3.40;99.90;;;;;;10436822;28;20188;-78
2022/12/26 01:07:02;;;;;;;70.93;36.27;;;3.40;99.90;;;;;;10461105;28;20215;-78
2022/12/26 01:12:23;;;;;;;72.73;34.47;;;3.50;99.90;;;;;;10440080;28;20239;-78
2022/12/26 01:17:44;;;;;;;69.30;34.83;;;3.50;99.90;;;;;;10436623;28;20223;-78
2022/12/26 01:23:05;;;;;;;66.83;33.23;;;3.60;99.90;;;;;;10450213;28;20491;-79
2022/12/26 01:28:26;;;;;;;61.10;30.83;;;3.60;99.90;;;;;;10436215;28;20216;-78
2022/12/26 01:33:48;;;;;;;60.10;29.97;;;3.60;99.90;;;;;;10436203;28;20195;-78
2022/12/26 01:39:09;;;;;;;52.10;28.73;;;3.60;99.90;;;;;;10435532;28;20236;-78
2022/12/26 01:45:07;;;;;;;51.40;27.17;;;3.60;99.90;;;;;;10436633;28;20278;-78
2022/12/26 01:50:29;;;;;;;51.53;24.50;;;3.70;99.90;;;;;;10421320;28;20205;-78
2022/12/26 01:56:00;;;;;;;42.47;23.83;;;3.70;99.90;;;;;;10435289;28;20220;-78
2022/12/26 02:01:26;;;;;;;36.77;21.43;;;3.70;99.90;;;;;;10443675;28;20193;-78
2022/12/26 02:06:49;;;;;;;41.83;22.67;;;3.70;99.90;;;;;;10466118;28;20281;-78
2022/12/26 02:12:31;;;;;;;37.60;22.57;;;3.70;99.90;;;;;;10464159;28;20276;-78
2022/12/26 02:17:56;;;;;;;34.93;20.73;;;3.70;99.90;;;;;;10443112;28;20296;-78
2022/12/26 02:23:20;;;;;;;33.97;20.73;;;3.70;99.90;;;;;;10443537;28;20192;-78
2022/12/26 02:29:14;;;;;;;34.73;21.17;;;3.80;99.90;;;;;;10443917;28;20193;-77
2022/12/26 02:35:04;;;;;;;32.40;19.50;;;3.70;99.90;;;;;;10442308;28;20494;-79
2022/12/26 02:40:36;;;;;;;30.10;20.33;;;3.70;99.90;;;;;;10443347;28;20414;-78
2022/12/26 03:15:09;;;;;;;36.93;22.47;;;3.70;99.90;;;;;;10440716;28;20270;-78
2022/12/26 03:20:34;;;;;;;37.10;21.80;;;3.70;99.90;;;;;;10440232;28;20430;-79
2022/12/26 03:31:39;;;;;;;33.13;19.97;;;3.80;99.90;;;;;;10441051;28;20549;-78
2022/12/26 03:37:19;;;;;;;31.83;19.63;;;3.80;99.90;;;;;;10439820;28;20417;-78
2022/12/26 04:46:41;;;;;;;23.80;14.60;;;3.70;99.90;;;;;;10438137;28;20407;-79
2022/12/26 04:52:11;;;;;;;20.87;13.87;;;3.80;99.90;;;;;;10438127;28;20372;-79
2022/12/26 04:57:32;;;;;;;19.50;13.17;;;3.70;99.90;;;;;;10436973;28;20228;-79
2022/12/26 05:14:23;;;;;;;17.80;12.70;;;3.80;99.90;;;;;;10436249;28;20200;-78
2022/12/26 05:31:16;;;;;;;14.33;10.30;;;3.80;99.90;;;;;;10436623;28;20199;-79
2022/12/26 05:36:42;;;;;;;13.03;10.17;;;3.80;99.90;;;;;;10436496;28;20231;-79
2022/12/26 05:42:03;;;;;;;17.87;13.67;;;3.90;99.90;;;;;;10421614;28;20205;-79
2022/12/26 05:47:24;;;;;;;17.27;11.40;;;3.90;99.90;;;;;;10421780;28;20514;-78
2022/12/26 05:52:45;;;;;;;14.63;9.83;;;3.90;99.90;;;;;;10435341;28;20202;-78
2022/12/26 05:58:07;;;;;;;13.53;8.93;;;3.90;99.90;;;;;;10434947;28;20231;-78
2022/12/26 06:03:28;;;;;;;10.93;8.77;;;3.90;99.90;;;;;;10449478;28;20260;-79
2022/12/26 06:08:51;;;;;;;10.50;8.17;;;3.90;99.90;;;;;;10451079;28;20238;-79
2022/12/26 06:14:12;;;;;;;11.47;8.27;;;3.90;99.90;;;;;;10435243;28;20212;-79
2022/12/26 06:19:34;;;;;;;9.80;7.33;;;3.90;99.90;;;;;;10435865;28;20290;-79
2022/12/26 06:24:55;;;;;;;9.47;8.13;;;3.90;99.90;;;;;;10434880;28;20190;-78
2022/12/26 06:30:17;;;;;;;12.23;8.20;;;4.00;99.90;;;;;;10434368;28;20205;-79
2022/12/26 06:35:39;;;;;;;9.93;7.03;;;3.90;99.90;;;;;;10420661;28;20221;-79
2022/12/26 06:41:02;;;;;;;11.20;7.60;;;4.00;99.90;;;;;;10435435;28;20186;-78
2022/12/26 06:46:25;;;;;;;9.27;6.27;;;4.00;99.90;;;;;;10438084;28;20189;-79
2022/12/26 06:51:46;;;;;;;10.57;6.83;;;4.10;99.90;;;;;;10427656;28;20224;-78
2022/12/26 06:57:07;;;;;;;9.07;7.10;;;4.10;99.90;;;;;;10441550;28;20220;-79
2022/12/26 07:02:28;;;;;;;14.97;6.77;;;4.10;99.90;;;;;;10442426;28;20775;-79
2022/12/26 07:07:52;;;;;;;10.47;6.73;;;4.10;99.90;;;;;;10472224;28;20231;-79
2022/12/26 07:13:13;;;;;;;17.57;15.70;;;4.20;99.90;;;;;;10440831;28;20481;-79
2022/12/26 07:18:35;;;;;;;14.93;12.40;;;4.20;99.90;;;;;;10454773;28;20224;-79
2022/12/26 07:23:56;;;;;;;11.57;8.00;;;4.30;99.90;;;;;;10440108;28;20200;-79
2022/12/26 07:29:17;;;;;;;7.80;6.17;;;4.30;99.90;;;;;;10426317;28;20260;-79
2022/12/26 07:34:38;;;;;;;8.30;5.90;;;4.40;99.90;;;;;;10426192;28;20555;-79
2022/12/26 07:39:59;;;;;;;14.63;8.47;;;4.40;99.90;;;;;;10425722;28;20390;-78
2022/12/26 07:45:20;;;;;;;17.23;12.83;;;4.40;99.90;;;;;;10439915;28;20247;-79
2022/12/26 07:50:45;;;;;;;12.53;10.17;;;4.50;99.90;;;;;;10440524;28;20194;-79
2022/12/26 07:56:07;;;;;;;17.57;13.00;;;4.50;99.90;;;;;;10438847;28;20218;-79
2022/12/26 08:01:28;;;;;;;16.70;11.77;;;4.50;99.90;;;;;;10440154;28;20250;-78
2022/12/26 08:06:49;;;;;;;21.40;12.23;;;4.60;99.90;;;;;;10462853;28;20198;-78
2022/12/26 08:12:11;;;;;;;22.47;14.80;;;4.60;99.90;;;;;;10482175;28;20238;-79
2022/12/26 08:17:32;;;;;;;29.20;18.43;;;4.60;99.90;;;;;;10465495;28;20236;-79
2022/12/26 08:22:54;;;;;;;44.80;22.63;;;4.70;99.90;;;;;;10479330;28;20189;-79
2022/12/26 08:28:20;;;;;;;45.67;26.03;;;4.70;99.90;;;;;;10451996;28;20503;-79
2022/12/26 08:33:41;;;;;;;41.97;26.17;;;4.80;99.90;;;;;;10479200;28;20214;-78
2022/12/26 08:39:02;;;;;;;39.97;25.03;;;4.90;99.90;;;;;;10464553;28;20548;-78
2022/12/26 08:44:23;;;;;;;39.87;28.63;;;5.00;99.90;;;;;;10479130;28;20186;-80
2022/12/26 08:49:46;;;;;;;26.73;17.10;;;5.10;99.90;;;;;;10478475;28;20199;-79
2022/12/26 08:55:08;;;;;;;83.80;39.40;;;5.40;99.90;;;;;;10464051;28;20206;-79
2022/12/26 09:00:29;;;;;;;43.90;24.40;;;5.60;99.90;;;;;;10464085;28;20430;-79
2022/12/26 09:05:50;;;;;;;23.83;16.77;;;5.70;99.90;;;;;;10491760;28;20205;-79
2022/12/26 09:11:15;;;;;;;22.70;16.57;;;5.80;99.90;;;;;;10447968;28;20238;-79
2022/12/26 09:16:42;;;;;;;34.60;23.17;;;5.90;99.90;;;;;;10422228;28;20238;-79
2022/12/26 09:27:49;;;;;;;29.97;20.73;;;6.20;99.90;;;;;;10435857;28;20387;-79
2022/12/26 09:33:12;;;;;;;29.80;20.73;;;6.30;99.90;;;;;;10437072;28;20197;-79
2022/12/26 09:38:35;;;;;;;25.50;15.83;;;6.30;99.90;;;;;;10436070;28;20226;-79
2022/12/26 09:44:14;;;;;;;21.37;15.93;;;6.50;99.90;;;;;;10436833;28;20245;-79
2022/12/26 09:49:50;;;;;;;24.93;16.43;;;6.60;99.90;;;;;;10421310;28;20216;-79
2022/12/26 09:55:30;;;;;;;23.00;13.90;;;;;;;;;;10435196;28;20448;-79
2022/12/26 10:01:10;;;;;;;25.17;15.30;;;6.90;99.90;;;;;;10435201;28;20266;-77
2022/12/26 10:06:35;;;;;;;22.03;15.97;;;;;;;;;;10455574;28;20214;-78
2022/12/26 10:12:12;;;;;;;21.53;14.63;;;7.10;99.90;;;;;;10478552;28;20244;-78
2022/12/26 10:18:02;;;;;;;23.10;14.10;;;7.20;99.90;;;;;;10476299;28;20249;-78
2022/12/26 10:23:46;;;;;;;24.20;14.63;;;7.40;99.90;;;;;;10485150;28;20195;-79
2022/12/26 10:29:06;;;;;;;21.23;14.17;;;7.30;99.90;;;;;;10484947;28;20274;-79
2022/12/26 10:34:40;;;;;;;26.60;16.13;;;7.30;99.90;;;;;;10484740;28;20493;-78
2022/12/26 10:40:25;;;;;;;20.07;14.00;;;7.40;99.90;;;;;;10483833;28;20229;-77
2022/12/26 10:45:52;;;;;;;11.60;8.50;;;7.40;99.90;;;;;;10484208;28;20196;-79
2022/12/26 10:51:14;;;;;;;8.87;5.90;;;7.50;99.90;;;;;;10468751;28;20208;-77
2022/12/26 10:56:35;;;;;;;8.53;4.53;;;7.50;99.90;;;;;;10484030;28;20267;-78
2022/12/26 11:02:26;;;;;;;5.77;3.53;;;7.50;99.90;;;;;;10482688;28;20415;-78
2022/12/26 11:08:08;;;;;;;4.40;2.63;;;7.60;99.90;;;;;;10467464;28;20472;-78
2022/12/26 11:13:36;;;;;;;4.40;2.90;;;7.60;99.90;;;;;;10442112;28;20192;-79
2022/12/26 11:18:57;;;;;;;5.27;3.83;;;7.60;99.90;;;;;;10441480;28;20243;-79
2022/12/26 11:24:19;;;;;;;4.47;2.83;;;7.60;99.90;;;;;;10440394;28;20227;-80
2022/12/26 11:29:41;;;;;;;3.53;2.83;;;7.70;99.90;;;;;;10440073;28;20199;-79
2022/12/26 11:35:03;;;;;;;3.23;2.43;;;8.00;99.90;;;;;;10439672;28;20232;-80
2022/12/26 11:40:30;;;;;;;3.53;2.20;;;7.90;99.90;;;;;;10440806;28;20227;-79
2022/12/26 11:45:51;;;;;;;2.23;1.67;;;7.80;99.90;;;;;;10440454;28;20243;-79
2022/12/26 11:51:13;;;;;;;4.03;2.00;;;7.80;99.90;;;;;;10440544;28;20266;-78
2022/12/26 11:56:34;;;;;;;8.13;2.90;;;7.60;99.90;;;;;;10440365;28;20530;-80
2022/12/26 12:02:20;;;;;;;5.03;3.30;;;7.50;99.90;;;;;;10439059;28;20191;-80
2022/12/26 12:07:40;;;;;;;4.50;2.73;;;7.50;99.90;;;;;;10468680;28;20259;-80
2022/12/26 12:13:10;;;;;;;2.77;2.00;;;7.40;99.90;;;;;;10438764;28;20207;-79
2022/12/26 12:18:40;;;;;;;3.07;1.60;;;7.30;99.90;;;;;;10438998;28;20223;-79
2022/12/26 12:24:29;;;;;;;2.13;1.50;;;7.20;99.90;;;;;;10438447;28;20363;-80
2022/12/26 12:30:02;;;;;;;2.17;1.70;;;7.30;99.90;;;;;;10438794;28;20196;-80
2022/12/26 12:35:23;;;;;;;3.03;1.67;;;7.30;99.90;;;;;;10438919;28;20215;-79
2022/12/26 12:40:47;;;;;;;3.50;2.37;;;7.20;99.90;;;;;;10437486;28;20533;-80
2022/12/26 12:46:44;;;;;;;3.80;2.57;;;7.30;99.90;;;;;;10423038;28;20195;-79
2022/12/26 12:52:31;;;;;;;5.27;2.90;;;7.10;99.90;;;;;;10423273;28;20232;-79
2022/12/26 12:58:09;;;;;;;4.07;3.00;;;7.10;99.90;;;;;;10436832;28;20222;-79
2022/12/26 13:03:41;;;;;;;4.60;3.87;;;7.10;99.90;;;;;;10439123;28;20271;-79
2022/12/26 13:09:25;;;;;;;3.97;2.73;;;7.20;99.90;;;;;;10450710;28;20245;-79
2022/12/26 13:14:57;;;;;;;3.67;2.50;;;7.20;99.90;;;;;;10436341;28;20194;-80
2022/12/26 13:20:41;;;;;;;7.73;4.80;;;7.20;99.90;;;;;;10422454;28;20239;-80
2022/12/26 13:26:13;;;;;;;12.60;6.40;;;7.10;99.90;;;;;;10437090;28;20427;-79
2022/12/26 13:31:36;;;;;;;9.43;5.43;;;7.10;99.90;;;;;;10436892;28;20289;-80
2022/12/26 13:36:59;;;;;;;5.67;2.93;;;7.10;99.90;;;;;;10436899;28;20257;-79
2022/12/26 13:48:14;;;;;;;12.53;3.90;;;7.20;99.90;;;;;;10435462;28;20249;-79
2022/12/26 13:53:39;;;;;;;5.77;1.97;;;7.20;99.90;;;;;;10437213;28;20195;-79
2022/12/26 13:59:07;;;;;;;3.17;2.23;;;7.10;99.90;;;;;;10429514;28;20226;-79
2022/12/26 14:04:45;;;;;;;10.63;4.60;;;7.10;99.90;;;;;;10447199;28;20274;-79
2022/12/26 14:10:15;;;;;;;4.10;3.47;;;7.00;99.90;;;;;;10465428;28;20234;-78
2022/12/26 14:15:56;;;;;;;4.33;2.00;;;6.90;99.90;;;;;;10442918;28;20191;-78
2022/12/26 14:21:20;;;;;;;3.63;1.97;;;7.00;99.90;;;;;;10428861;28;20198;-78
2022/12/26 14:27:17;;;;;;;2.27;1.80;;;7.00;99.90;;;;;;10428337;28;20203;-79
2022/12/26 14:33:04;;;;;;;2.70;1.90;;;7.00;99.90;;;;;;10442523;28;20200;-79
2022/12/26 14:38:52;;;;;;;3.53;2.37;;;7.00;99.90;;;;;;10428443;28;20447;-80
2022/12/26 14:44:36;;;;;;;3.07;2.07;;;7.00;99.90;;;;;;10442141;28;20202;-79
2022/12/26 14:49:57;;;;;;;4.13;2.57;;;6.90;99.90;;;;;;10443010;28;20199;-78
2022/12/26 14:55:44;;;;;;;2.43;1.90;;;6.90;99.90;;;;;;10442753;28;20192;-79
2022/12/26 15:01:08;;;;;;;2.87;1.80;;;7.00;99.90;;;;;;10479945;28;20287;-79
2022/12/26 15:06:29;;;;;;;5.97;3.30;;;6.90;99.90;;;;;;10498997;28;20211;-78
2022/12/26 15:12:09;;;;;;;10.00;6.40;;;6.90;99.90;;;;;;10520775;28;20242;-79
2022/12/26 15:17:32;;;;;;;9.57;4.80;;;6.90;99.90;;;;;;10520731;28;20233;-78
2022/12/26 15:23:26;;;;;;;12.03;6.90;;;6.90;99.90;;;;;;10520581;28;20212;-79
2022/12/26 15:29:05;;;;;;;11.30;6.83;;;6.90;99.90;;;;;;10380518;28;20518;-79
2022/12/26 15:34:56;;;;;;;28.60;15.10;;;6.90;99.90;;;;;;10391175;28;20240;-78
2022/12/26 15:40:28;;;;;;;4.80;3.30;;;6.90;99.90;;;;;;10312101;28;20232;-78
2022/12/26 15:45:58;;;;;;;10.73;6.27;;;6.90;99.90;;;;;;10325351;28;20439;-79
2022/12/26 15:51:53;;;;;;;9.60;5.27;;;6.90;99.90;;;;;;10338718;28;20585;-79
2022/12/26 15:57:34;;;;;;;9.13;5.27;;;7.00;99.90;;;;;;10352578;28;20236;-79
2022/12/26 16:03:08;;;;;;;9.47;4.83;;;6.90;99.90;;;;;;10405415;28;20210;-78
2022/12/26 16:08:47;;;;;;;9.53;4.80;;;6.90;99.90;;;;;;10473125;28;20252;-80
2022/12/26 16:14:22;;;;;;;11.53;6.23;;;6.80;99.90;;;;;;10427272;28;20223;-79
2022/12/26 16:19:46;;;;;;;22.53;9.10;;;6.80;99.90;;;;;;10423863;28;20242;-79
2022/12/26 16:25:07;;;;;;;13.37;6.30;;;6.80;99.90;;;;;;10438255;28;20202;-79
2022/12/26 16:30:34;;;;;;;12.93;6.07;;;6.90;99.90;;;;;;10438827;28;20268;-79
2022/12/26 16:35:56;;;;;;;43.90;19.53;;;6.90;99.90;;;;;;10438065;28;20200;-78
2022/12/26 16:41:26;;;;;;;21.03;7.90;;;6.80;99.90;;;;;;10423368;28;20231;-79
2022/12/26 16:46:47;;;;;;;10.33;4.80;;;6.90;99.90;;;;;;10423137;28;20205;-79
2022/12/26 16:52:34;;;;;;;7.83;3.87;;;6.80;99.90;;;;;;10422862;28;20242;-79
2022/12/26 16:57:59;;;;;;;6.23;3.37;;;6.90;99.90;;;;;;10437103;28;20223;-79
2022/12/26 17:03:32;;;;;;;4.00;2.47;;;6.90;99.90;;;;;;10436823;28;20223;-79
2022/12/26 17:08:56;;;;;;;1.93;1.73;;;6.90;99.90;;;;;;10453453;28;20466;-78
2022/12/26 17:14:23;;;;;;;2.27;1.83;;;6.80;99.90;;;;;;10422845;28;20195;-79
2022/12/26 17:19:44;;;;;;;2.17;1.70;;;6.90;99.90;;;;;;10421982;28;20235;-79
2022/12/26 17:25:26;;;;;;;3.63;2.13;;;7.00;99.90;;;;;;10422931;28;20191;-79
2022/12/26 17:30:51;;;;;;;3.07;2.20;;;6.90;99.90;;;;;;10420937;28;20309;-78
2022/12/26 17:36:14;;;;;;;2.50;1.90;;;6.90;99.90;;;;;;10421387;28;20226;-79
2022/12/26 17:41:58;;;;;;;4.27;2.50;;;6.90;99.90;;;;;;10435738;28;20378;-78
2022/12/26 17:47:23;;;;;;;10.40;5.60;;;6.80;99.90;;;;;;10435247;28;20228;-79
2022/12/26 17:52:44;;;;;;;13.47;8.10;;;6.90;99.90;;;;;;10435306;28;20244;-79
2022/12/26 17:58:10;;;;;;;12.87;6.40;;;6.80;99.90;;;;;;10436563;28;20579;-78
2022/12/26 18:03:32;;;;;;;9.93;5.40;;;6.90;99.90;;;;;;10436119;28;20435;-78
2022/12/26 18:08:53;;;;;;;14.07;8.40;;;6.90;99.90;;;;;;10466405;28;20231;-79
2022/12/26 18:14:14;;;;;;;9.43;5.03;;;6.80;99.90;;;;;;10436155;28;20194;-79
2022/12/26 18:19:35;;;;;;;10.10;5.23;;;6.70;99.90;;;;;;10434323;28;20499;-79
2022/12/26 18:24:56;;;;;;;11.17;5.73;;;6.80;99.90;;;;;;10420790;28;20223;-79
2022/12/26 18:30:23;;;;;;;15.07;6.83;;;6.70;99.90;;;;;;10434752;28;20203;-79
2022/12/26 18:35:46;;;;;;;18.50;8.50;;;6.70;99.90;;;;;;10420654;28;20219;-79
2022/12/26 18:41:13;;;;;;;11.40;5.90;;;6.70;99.90;;;;;;10437678;28;20223;-79
2022/12/26 18:46:34;;;;;;;14.87;6.90;;;6.70;99.90;;;;;;10427717;28;20295;-79
2022/12/26 18:51:55;;;;;;;10.07;6.83;;;6.70;99.90;;;;;;10427934;28;20207;-78
2022/12/26 18:57:19;;;;;;;29.47;15.23;;;6.70;99.90;;;;;;10442451;28;20599;-79
2022/12/26 19:02:40;;;;;;;19.67;9.20;;;6.80;99.90;;;;;;10455365;28;20190;-77
2022/12/26 19:08:01;;;;;;;26.00;10.93;;;6.80;99.90;;;;;;10471251;28;20248;-79
2022/12/26 19:13:22;;;;;;;17.63;8.13;;;6.80;99.90;;;;;;10441135;28;20279;-79
2022/12/26 19:18:44;;;;;;;17.27;9.27;;;6.80;99.90;;;;;;10454648;28;20229;-78
2022/12/26 19:24:05;;;;;;;17.67;8.77;;;6.80;99.90;;;;;;10441573;28;20542;-79
2022/12/26 19:29:26;;;;;;;18.73;12.03;;;6.90;99.90;;;;;;10441278;28;20198;-78
2022/12/26 19:34:47;;;;;;;18.60;9.40;;;6.80;99.90;;;;;;10425932;28;20223;-78
2022/12/26 19:40:10;;;;;;;14.73;8.07;;;6.90;99.90;;;;;;10439999;28;20391;-78
2022/12/26 19:45:31;;;;;;;24.87;12.27;;;6.90;99.90;;;;;;10440541;28;20200;-79
2022/12/26 19:50:53;;;;;;;16.80;10.00;;;7.00;99.90;;;;;;10440263;28;20218;-78
2022/12/26 19:56:16;;;;;;;17.83;10.00;;;6.90;99.90;;;;;;10439251;28;20395;-79
2022/12/26 20:01:40;;;;;;;6.47;4.80;;;6.90;99.90;;;;;;10424868;28;20239;-78
2022/12/26 20:07:01;;;;;;;5.13;3.43;;;7.10;99.90;;;;;;10435915;28;20459;-79
2022/12/26 20:12:22;;;;;;;6.33;4.07;;;7.10;99.90;;;;;;10465725;28;20256;-79
2022/12/26 20:17:43;;;;;;;10.90;4.70;;;7.10;99.90;;;;;;10480055;28;20263;-78
2022/12/26 20:23:05;;;;;;;4.33;2.83;;;7.00;99.90;;;;;;10465488;28;20278;-79
2022/12/26 20:28:27;;;;;;;5.67;3.17;;;7.10;99.90;;;;;;10479304;28;20203;-79
2022/12/26 20:33:50;;;;;;;5.00;3.10;;;7.00;99.90;;;;;;10480377;28;20194;-79
2022/12/26 20:39:14;;;;;;;7.93;3.57;;;6.90;99.90;;;;;;10481354;28;20237;-78
2022/12/26 20:44:40;;;;;;;5.10;3.47;;;6.80;99.90;;;;;;10479532;28;20210;-78
2022/12/26 20:50:01;;;;;;;5.30;3.50;;;6.70;99.90;;;;;;10464397;28;20197;-78
2022/12/26 20:55:22;;;;;;;4.67;3.80;;;6.60;99.90;;;;;;10464233;28;20493;-77
2022/12/26 21:00:43;;;;;;;7.90;4.03;;;6.70;99.90;;;;;;10463847;28;20244;-77
2022/12/26 21:06:20;;;;;;;8.13;4.20;;;6.80;99.90;;;;;;10462892;28;20211;-78
2022/12/26 21:11:42;;;;;;;8.03;4.23;;;6.70;99.90;;;;;;10430722;28;20233;-79
2022/12/26 21:17:03;;;;;;;5.90;1.40;;;6.70;99.90;;;;;;10436526;28;20250;-77
2022/12/26 21:22:25;;;;;;;4.27;1.90;;;6.60;99.90;;;;;;10435998;28;20203;-77
2022/12/26 21:27:46;;;;;;;4.23;1.17;;;6.50;99.90;;;;;;10435822;28;20493;-78
2022/12/26 21:33:09;;;;;;;4.83;1.90;;;6.20;99.90;;;;;;10436180;28;20423;-78
2022/12/26 21:38:30;;;;;;;5.93;1.70;;;6.10;1.00;;;;;;10436014;28;20293;-78
2022/12/26 21:43:55;;;;;;;9.23;2.60;;;5.90;1.00;;;;;;10435556;28;20186;-77
2022/12/26 21:49:16;;;;;;;4.67;1.47;;;5.80;1.00;;;;;;10435736;28;20204;-78
2022/12/26 22:00:18;;;;;;;8.07;1.93;;;5.70;1.00;;;;;;10435240;28;20301;-77
2022/12/26 22:05:40;;;;;;;9.27;1.70;;;5.50;1.00;;;;;;10462888;28;20195;-78
2022/12/26 22:16:41;;;;;;;9.77;1.47;;;5.10;1.00;;;;;;10440438;28;20213;-78
2022/12/26 22:22:02;;;;;;;5.10;1.47;;;5.10;1.00;;;;;;10444153;28;20220;-77
2022/12/26 22:27:24;;;;;;;12.17;2.20;;;5.00;1.00;;;;;;10445406;28;20192;-77
2022/12/26 22:32:45;;;;;;;6.63;1.67;;;5.00;8.90;;;;;;10442685;28;20207;-77
2022/12/26 22:38:06;;;;;;;7.13;1.40;;;5.00;1.00;;;;;;10456404;28;20225;-77
2022/12/26 22:43:28;;;;;;;8.17;1.43;;;4.90;1.00;;;;;;10442290;28;20204;-77
2022/12/26 22:48:49;;;;;;;6.03;1.57;;;4.90;1.00;;;;;;10443268;28;20189;-78
2022/12/26 22:54:10;;;;;;;14.53;2.27;;;4.80;9.60;;;;;;10442662;28;20527;-77
2022/12/26 22:59:31;;;;;;;7.90;1.73;;;4.70;4.20;;;;;;10442658;28;20530;-77
2022/12/26 23:05:13;;;;;;;7.80;1.33;;;4.70;1.00;;;;;;10451636;28;20200;-77
2022/12/26 23:10:34;;;;;;;8.83;1.67;;;4.80;1.00;;;;;;10458652;28;20229;-78
2022/12/26 23:16:12;;;;;;;6.73;1.20;;;4.70;1.00;;;;;;10442231;28;20392;-78
2022/12/26 23:21:37;;;;;;;8.93;1.63;;;4.70;1.00;;;;;;10441737;28;20217;-78
2022/12/26 23:32:50;;;;;;;7.27;1.60;;;4.70;1.00;;;;;;10441523;28;20215;-77
2022/12/26 23:38:11;;;;;;;14.80;2.13;;;4.60;1.00;;;;;;10440093;28;20220;-77
2022/12/26 23:43:32;;;;;;;8.90;1.73;;;4.60;1.50;;;;;;10440720;28;20189;-77
2022/12/26 23:48:53;;;;;;;13.77;2.37;;;4.60;18.80;;;;;;10425834;28;20223;-78
2022/12/26 23:54:14;;;;;;;7.97;1.63;;;4.50;47.80;;;;;;10425357;28;20196;-78
2022/12/26 23:59:35;;;;;;;10.63;2.40;;;4.40;83.90;;;;;;10453480;28;20221;-78
